Time;durP1;ratioP1;P1;durP2;ratioP2;P2;SDS_P1;SDS_P2;PMS_P1;PMS_P2;Temp;Humidity;BMP_temperature;BMP_pressure;BME280_temperature;BME280_humidity;BME280_pressure;Samples;Min_cycle;Max_cycle;Signal;HPM_P1;HPM_P2
2020/12/27 00:00:33;;;;;;;22.95;17.05;;;;;;;;;;5061915;28;20382;-74
2020/12/27 00:02:59;;;;;;;21.85;16.35;;;;;;;;;;5060241;28;20390;-74
2020/12/27 00:05:25;;;;;;;21.88;16.98;;;-1.10;99.90;;;;;;5060599;28;20385;-74
2020/12/27 00:07:51;;;;;;;19.48;16.40;;;;;;;;;;5065668;28;20434;-74
2020/12/27 00:10:17;;;;;;;23.17;17.87;;;;;;;;;;5058307;28;20503;-74
2020/12/27 00:12:43;;;;;;;23.25;17.95;;;;;;;;;;5065166;28;20888;-74
2020/12/27 00:15:08;;;;;;;23.50;18.37;;;-0.80;99.90;;;;;;5057777;28;20401;-73
2020/12/27 00:17:34;;;;;;;22.65;17.05;;;;;;;;;;5062157;28;20383;-73
2020/12/27 00:20:04;;;;;;;19.23;16.27;;;;;;;;;;5060779;28;20387;-73
2020/12/27 00:22:29;;;;;;;20.33;15.77;;;-0.50;99.90;;;;;;5061452;28;20376;-73
2020/12/27 00:24:55;;;;;;;19.63;15.47;;;-0.80;99.90;;;;;;5060950;28;20430;-74
2020/12/27 00:27:20;;;;;;;19.97;16.03;;;-0.10;99.90;;;;;;5065098;28;20399;-73
2020/12/27 00:29:46;;;;;;;19.73;15.20;;;;;;;;;;5061376;28;20435;-73
2020/12/27 00:32:12;;;;;;;18.25;14.30;;;;;;;;;;5063801;28;20372;-74
2020/12/27 00:34:38;;;;;;;18.23;14.30;;;;;;;;;;5064322;28;20380;-74
2020/12/27 00:37:04;;;;;;;17.95;13.98;;;;;;;;;;5064075;28;20458;-74
2020/12/27 00:39:30;;;;;;;17.77;14.48;;;;;;;;;;5065271;28;20685;-73
2020/12/27 00:42:00;;;;;;;18.35;13.82;;;-0.70;99.90;;;;;;5062558;28;20744;-74
2020/12/27 00:44:26;;;;;;;17.70;14.27;;;-0.20;99.90;;;;;;5063409;28;20385;-74
2020/12/27 00:46:52;;;;;;;17.63;14.00;;;-1.00;99.90;;;;;;5070758;28;20475;-73
2020/12/27 00:49:18;;;;;;;17.70;14.03;;;-0.30;99.90;;;;;;5064337;28;20385;-74
2020/12/27 00:51:44;;;;;;;18.48;13.75;;;-0.80;99.90;;;;;;5068466;28;20466;-74
2020/12/27 00:54:11;;;;;;;18.80;14.15;;;-1.30;99.90;;;;;;5063799;28;20890;-74
2020/12/27 00:56:36;;;;;;;18.35;14.90;;;-1.20;99.90;;;;;;5069546;28;20407;-74
2020/12/27 00:59:02;;;;;;;16.67;13.83;;;-0.90;99.90;;;;;;5061437;28;20389;-74
2020/12/27 01:01:27;;;;;;;18.87;13.87;;;-1.30;99.90;;;;;;5064751;28;20383;-74
2020/12/27 01:03:53;;;;;;;19.93;14.63;;;;;;;;;;5062980;28;20728;-73
2020/12/27 01:06:23;;;;;;;19.83;14.27;;;;;;;;;;5063769;28;20733;-74
2020/12/27 01:08:49;;;;;;;19.17;13.95;;;;;;;;;;5061284;28;20377;-74
2020/12/27 01:11:15;;;;;;;18.10;13.98;;;-1.20;99.90;;;;;;5064050;28;20826;-75
2020/12/27 01:13:40;;;;;;;17.33;14.03;;;-1.10;99.90;;;;;;5063797;28;20469;-74
2020/12/27 01:16:14;;;;;;;18.20;14.25;;;;;;;;;;5063891;28;21624;-73
2020/12/27 01:18:40;;;;;;;18.35;13.85;;;;;;;;;;5062214;28;20436;-73
2020/12/27 01:21:06;;;;;;;16.17;13.93;;;-1.40;99.90;;;;;;5047504;28;20376;-74
2020/12/27 01:23:32;;;;;;;16.40;13.35;;;;;;;;;;5062040;28;20941;-73
2020/12/27 01:25:58;;;;;;;16.27;13.13;;;;;;;;;;5068504;28;20800;-75
2020/12/27 01:28:24;;;;;;;17.10;13.50;;;;;;;;;;5060453;28;20400;-74
2020/12/27 01:30:50;;;;;;;16.80;12.85;;;;;;;;;;5067892;28;20471;-72
2020/12/27 01:33:16;;;;;;;17.15;13.32;;;;;;;;;;5059988;28;20382;-74
2020/12/27 01:35:45;;;;;;;16.83;13.03;;;;;;;;;;5065612;28;20412;-75
2020/12/27 01:38:12;;;;;;;16.83;13.20;;;-1.40;99.90;;;;;;5064192;28;20466;-74
2020/12/27 01:40:37;;;;;;;15.75;12.45;;;-1.40;99.90;;;;;;5064340;28;20514;-74
2020/12/27 01:43:03;;;;;;;14.93;12.30;;;-1.40;99.90;;;;;;5061990;28;20430;-75
2020/12/27 01:45:29;;;;;;;17.63;12.80;;;;;;;;;;5063497;28;20391;-73
2020/12/27 01:47:55;;;;;;;16.83;13.00;;;;;;;;;;5060097;28;20449;-75
2020/12/27 01:50:21;;;;;;;16.02;12.55;;;;;;;;;;5064136;28;20380;-73
2020/12/27 01:52:47;;;;;;;16.48;12.63;;;-1.60;99.90;;;;;;5062687;28;20393;-74
2020/12/27 01:55:14;;;;;;;15.95;12.68;;;-1.60;99.90;;;;;;5063599;28;20428;-73
2020/12/27 01:57:59;;;;;;;17.40;13.10;;;;;;;;;;5060292;28;20387;-74
2020/12/27 02:00:25;;;;;;;15.68;12.43;;;;;;;;;;5053769;28;20419;-73
2020/12/27 02:02:51;;;;;;;15.73;12.38;;;;;;;;;;5061123;28;20382;-74
2020/12/27 02:05:17;;;;;;;15.07;12.30;;;;;;;;;;5064816;28;20397;-74
2020/12/27 02:07:44;;;;;;;14.45;11.98;;;-1.20;99.90;;;;;;5060072;28;20472;-74
2020/12/27 02:10:10;;;;;;;15.15;12.30;;;;;;;;;;5063768;28;20381;-73
2020/12/27 02:12:35;;;;;;;15.00;12.07;;;-1.40;99.90;;;;;;5065569;28;20454;-73
2020/12/27 02:15:01;;;;;;;15.77;12.45;;;;;;;;;;5059558;28;20429;-74
2020/12/27 02:17:27;;;;;;;15.27;12.37;;;;;;;;;;5064017;28;20379;-73
2020/12/27 02:19:53;;;;;;;17.13;12.55;;;;;;;;;;5061053;28;20438;-73
2020/12/27 02:22:19;;;;;;;16.30;12.70;;;;;;;;;;5060997;28;20471;-72
2020/12/27 02:24:45;;;;;;;16.05;12.68;;;;;;;;;;5060849;28;20391;-74
2020/12/27 02:27:11;;;;;;;16.83;12.38;;;;;;;;;;5062377;28;20376;-75
2020/12/27 02:29:37;;;;;;;16.02;12.18;;;;;;;;;;5061014;28;20407;-74
2020/12/27 02:32:04;;;;;;;15.38;12.13;;;;;;;;;;5062419;28;20383;-74
2020/12/27 02:34:30;;;;;;;16.08;12.20;;;;;;;;;;5060371;28;20384;-73
2020/12/27 02:36:56;;;;;;;15.90;12.80;;;;;;;;;;5060235;28;21060;-74
2020/12/27 02:39:22;;;;;;;15.50;12.32;;;;;;;;;;5063220;28;20405;-73
2020/12/27 02:41:49;;;;;;;15.30;12.20;;;;;;;;;;5060207;28;20725;-75
2020/12/27 02:44:14;;;;;;;15.60;12.85;;;-1.60;99.90;;;;;;5063158;28;20378;-74
2020/12/27 02:46:40;;;;;;;14.90;12.33;;;;;;;;;;5066396;28;20426;-72
2020/12/27 02:49:06;;;;;;;15.48;12.15;;;;;;;;;;5061862;28;20388;-74
2020/12/27 02:51:32;;;;;;;16.95;12.88;;;;;;;;;;5063408;28;20407;-73
2020/12/27 02:53:58;;;;;;;16.85;12.73;;;;;;;;;;5059644;28;20415;-73
2020/12/27 02:56:28;;;;;;;16.03;12.03;;;;;;;;;;5062159;28;20410;-72
2020/12/27 02:58:56;;;;;;;13.65;11.52;;;-1.70;99.90;;;;;;5061291;28;20380;-74
2020/12/27 03:01:22;;;;;;;14.60;11.50;;;;;;;;;;5061572;28;20380;-74
2020/12/27 03:03:47;;;;;;;15.02;11.88;;;-1.70;99.90;;;;;;5059067;28;20451;-75
2020/12/27 03:06:13;;;;;;;13.30;11.23;;;-1.60;99.90;;;;;;5062373;28;20777;-74
2020/12/27 03:08:40;;;;;;;14.47;11.70;;;-1.70;99.90;;;;;;5062157;28;20455;-74
2020/12/27 03:11:06;;;;;;;14.65;11.82;;;-2.20;99.90;;;;;;5048198;28;20754;-75
2020/12/27 03:13:33;;;;;;;14.60;11.63;;;;;;;;;;5061358;28;20397;-75
2020/12/27 03:16:03;;;;;;;15.60;12.48;;;-1.50;99.90;;;;;;5060114;28;20412;-73
2020/12/27 03:18:29;;;;;;;16.05;12.30;;;-2.10;99.90;;;;;;5061230;28;20465;-74
2020/12/27 03:20:55;;;;;;;13.85;11.70;;;-1.70;99.90;;;;;;5061070;28;20472;-74
2020/12/27 03:23:21;;;;;;;15.02;12.00;;;;;;;;;;5062188;28;20796;-74
2020/12/27 03:25:47;;;;;;;14.18;11.60;;;;;;;;;;5065835;28;20415;-73
2020/12/27 03:28:13;;;;;;;14.20;11.93;;;-2.00;99.90;;;;;;5057852;28;20416;-73
2020/12/27 03:30:39;;;;;;;15.77;11.40;;;;;;;;;;5065431;28;20437;-74
2020/12/27 03:33:05;;;;;;;13.33;11.20;;;;;;;;;;5055550;28;20764;-73
2020/12/27 03:35:31;;;;;;;13.73;11.07;;;;;;;;;;5062295;28;20414;-74
2020/12/27 03:37:57;;;;;;;14.98;12.25;;;;;;;;;;5060212;28;20381;-74
2020/12/27 03:40:23;;;;;;;14.27;11.50;;;;;;;;;;5061197;28;20469;-74
2020/12/27 03:42:49;;;;;;;12.32;10.60;;;;;;;;;;5059644;28;20939;-75
2020/12/27 03:45:15;;;;;;;15.68;11.70;;;;;;;;;;5062288;28;20376;-75
2020/12/27 03:47:41;;;;;;;14.77;10.98;;;-1.80;99.90;;;;;;5053178;28;20389;-74
2020/12/27 03:50:07;;;;;;;14.93;11.13;;;;;;;;;;5050503;28;20397;-74
2020/12/27 03:52:33;;;;;;;13.75;11.35;;;;;;;;;;5048966;28;20445;-73
2020/12/27 03:54:59;;;;;;;13.73;11.20;;;-1.80;99.90;;;;;;5049079;28;20392;-74
2020/12/27 03:57:24;;;;;;;13.47;11.17;;;-1.90;99.90;;;;;;5053317;28;20387;-75
2020/12/27 03:59:50;;;;;;;13.27;10.70;;;-2.00;99.90;;;;;;5070923;28;20375;-75
2020/12/27 04:02:16;;;;;;;13.63;10.93;;;;;;;;;;5073673;28;20554;-75
2020/12/27 04:04:42;;;;;;;14.30;10.77;;;;;;;;;;5072982;28;20424;-74
2020/12/27 04:07:08;;;;;;;13.25;11.07;;;;;;;;;;5073041;28;20426;-73
2020/12/27 04:09:34;;;;;;;12.77;10.93;;;-1.70;99.90;;;;;;5073829;28;20372;-73
2020/12/27 04:12:00;;;;;;;14.65;11.25;;;;;;;;;;5073636;28;20911;-74
2020/12/27 04:14:26;;;;;;;13.90;10.75;;;;;;;;;;5073522;28;20433;-73
2020/12/27 04:16:52;;;;;;;14.52;11.10;;;;;;;;;;5072905;28;20889;-72
2020/12/27 04:19:18;;;;;;;14.80;10.98;;;;;;;;;;5072779;28;20925;-73
2020/12/27 04:21:45;;;;;;;13.27;10.67;;;-2.60;99.90;;;;;;5073254;28;20383;-73
2020/12/27 04:24:11;;;;;;;13.38;11.00;;;;;;;;;;5073299;28;20397;-72
2020/12/27 04:26:37;;;;;;;14.20;10.73;;;-1.80;99.90;;;;;;5073307;28;20375;-74
2020/12/27 04:29:03;;;;;;;12.65;10.38;;;;;;;;;;5073018;28;20945;-73
2020/12/27 04:31:29;;;;;;;13.68;10.60;;;;;;;;;;5069558;28;20477;-73
2020/12/27 04:33:56;;;;;;;12.37;10.50;;;;;;;;;;5052749;28;20461;-74
2020/12/27 04:36:23;;;;;;;12.87;10.37;;;;;;;;;;5053245;28;20895;-74
2020/12/27 04:38:48;;;;;;;13.00;9.90;;;;;;;;;;5053230;28;20408;-74
2020/12/27 04:41:15;;;;;;;13.18;10.43;;;;;;;;;;5055815;28;20412;-71
2020/12/27 04:43:45;;;;;;;12.88;10.20;;;;;;;;;;5072146;28;20415;-72
2020/12/27 04:46:12;;;;;;;13.38;10.55;;;-2.00;99.90;;;;;;5072881;28;20395;-72
2020/12/27 04:48:38;;;;;;;11.55;9.75;;;-2.10;99.90;;;;;;5073498;28;20390;-72
2020/12/27 04:51:05;;;;;;;12.95;9.90;;;;;;;;;;5068891;28;20875;-74
2020/12/27 04:53:32;;;;;;;13.15;9.48;;;-2.50;99.90;;;;;;5053211;28;20385;-73
2020/12/27 04:55:59;;;;;;;14.27;10.10;;;;;;;;;;5056987;28;20404;-74
2020/12/27 04:58:25;;;;;;;12.23;9.68;;;;;;;;;;5072170;28;20386;-73
2020/12/27 05:00:50;;;;;;;12.93;10.10;;;-2.20;99.90;;;;;;5072924;28;20451;-72
2020/12/27 05:03:16;;;;;;;12.50;9.70;;;-2.20;99.90;;;;;;5061337;28;20871;-74
2020/12/27 05:05:42;;;;;;;13.17;9.97;;;;;;;;;;5052706;28;20397;-75
2020/12/27 05:08:07;;;;;;;11.55;9.27;;;-2.00;99.90;;;;;;5051784;28;20402;-74
2020/12/27 05:10:40;;;;;;;12.30;10.10;;;-2.20;99.90;;;;;;5055793;28;20387;-74
2020/12/27 05:13:06;;;;;;;11.93;9.85;;;;;;;;;;5072673;28;20950;-74
2020/12/27 05:15:33;;;;;;;13.60;9.60;;;;;;;;;;5072518;28;20522;-75
2020/12/27 05:17:59;;;;;;;12.20;9.45;;;;;;;;;;5072539;28;20384;-75
2020/12/27 05:20:25;;;;;;;12.87;10.13;;;;;;;;;;5071601;28;20384;-75
2020/12/27 05:22:52;;;;;;;13.30;10.00;;;;;;;;;;5059367;28;20381;-75
2020/12/27 05:25:18;;;;;;;12.70;10.25;;;;;;;;;;5052303;28;20381;-75
2020/12/27 05:27:44;;;;;;;13.13;10.00;;;;;;;;;;5052095;28;20393;-74
2020/12/27 05:30:10;;;;;;;11.63;9.90;;;;;;;;;;5051838;28;20448;-75
2020/12/27 05:32:36;;;;;;;11.60;9.95;;;-2.50;99.90;;;;;;5063244;28;20433;-75
2020/12/27 05:35:10;;;;;;;12.57;10.40;;;-2.10;99.90;;;;;;5064650;28;20955;-74
2020/12/27 05:37:37;;;;;;;12.18;10.02;;;-2.30;99.90;;;;;;5051384;28;20397;-74
2020/12/27 05:40:04;;;;;;;11.10;9.98;;;;;;;;;;5052188;28;20439;-74
2020/12/27 05:42:30;;;;;;;13.10;10.83;;;;;;;;;;5065267;28;20388;-75
2020/12/27 05:44:55;;;;;;;12.20;10.57;;;-2.60;99.90;;;;;;5071474;28;20394;-75
2020/12/27 05:47:21;;;;;;;12.10;10.50;;;-2.20;99.90;;;;;;5070687;28;20380;-76
2020/12/27 05:49:47;;;;;;;12.17;10.20;;;;;;;;;;5071379;28;20399;-74
2020/12/27 05:52:15;;;;;;;11.48;9.90;;;;;;;;;;5071532;28;20383;-74
2020/12/27 05:54:45;;;;;;;11.68;10.25;;;;;;;;;;5071733;28;20411;-74
2020/12/27 05:57:13;;;;;;;12.52;10.25;;;;;;;;;;5071391;28;20423;-74
2020/12/27 05:59:45;;;;;;;12.90;10.20;;;-2.00;99.90;;;;;;5071306;28;20411;-72
2020/12/27 06:02:42;;;;;;;12.57;11.00;;;-2.00;99.90;;;;;;5071942;28;20376;-75
2020/12/27 06:05:13;;;;;;;11.57;10.38;;;-2.40;99.90;;;;;;5072598;28;20962;-75
2020/12/27 06:07:40;;;;;;;13.55;10.73;;;;;;;;;;5072025;28;20731;-75
2020/12/27 06:10:18;;;;;;;11.73;10.50;;;-2.40;99.90;;;;;;5071912;28;20887;-75
2020/12/27 06:13:10;;;;;;;12.25;10.85;;;-2.20;99.90;;;;;;5071002;28;20919;-75
2020/12/27 06:15:54;;;;;;;12.52;10.85;;;-2.50;99.90;;;;;;5070747;28;20404;-74
2020/12/27 06:18:28;;;;;;;12.20;10.85;;;-2.30;99.90;;;;;;5071221;28;20815;-75
2020/12/27 06:21:07;;;;;;;12.95;11.38;;;-2.10;99.90;;;;;;5071401;28;20821;-75
2020/12/27 06:23:33;;;;;;;12.50;11.07;;;;;;;;;;5069791;28;20796;-74
2020/12/27 06:26:01;;;;;;;12.27;10.90;;;;;;;;;;5070453;28;20379;-74
2020/12/27 06:28:28;;;;;;;18.30;14.73;;;-2.80;99.90;;;;;;5070596;28;20382;-74
2020/12/27 06:30:57;;;;;;;13.30;11.80;;;-2.70;99.90;;;;;;5071147;28;20383;-74
2020/12/27 06:33:43;;;;;;;14.52;12.30;;;;;;;;;;5070750;28;20376;-75
2020/12/27 06:36:29;;;;;;;83.27;55.10;;;;;;;;;;5054398;28;20416;-75
2020/12/27 06:38:55;;;;;;;21.40;17.00;;;;;;;;;;5049520;28;20381;-75
2020/12/27 06:41:21;;;;;;;19.83;17.02;;;;;;;;;;5054807;28;20872;-74
2020/12/27 06:43:47;;;;;;;14.15;12.75;;;-1.90;99.90;;;;;;5070400;28;20391;-75
2020/12/27 06:46:27;;;;;;;14.70;12.40;;;-2.20;99.90;;;;;;5070573;28;20388;-74
2020/12/27 06:49:08;;;;;;;14.27;12.77;;;;;;;;;;5070228;28;20383;-73
2020/12/27 06:51:36;;;;;;;12.55;11.23;;;;;;;;;;5066484;28;20810;-73
2020/12/27 06:54:02;;;;;;;12.23;10.93;;;;;;;;;;5061666;28;20421;-73
2020/12/27 06:56:43;;;;;;;12.27;10.98;;;-1.90;99.90;;;;;;5051587;28;20413;-72
2020/12/27 06:59:09;;;;;;;12.00;10.70;;;;;;;;;;5068986;28;20738;-73
2020/12/27 07:01:35;;;;;;;12.70;11.40;;;-2.00;99.90;;;;;;5069991;28;20444;-73
2020/12/27 07:04:30;;;;;;;11.63;10.43;;;;;;;;;;5069260;28;20865;-71
2020/12/27 07:06:56;;;;;;;12.88;10.95;;;;;;;;;;5069902;28;20395;-72
2020/12/27 07:09:25;;;;;;;12.40;11.10;;;-1.70;99.90;;;;;;5070569;28;21036;-72
2020/12/27 07:12:03;;;;;;;12.00;10.80;;;;;;;;;;5070387;28;20380;-72
2020/12/27 07:14:29;;;;;;;12.37;11.07;;;-2.00;99.90;;;;;;5069508;28;20490;-72
2020/12/27 07:16:56;;;;;;;12.13;10.93;;;;;;;;;;5069316;28;20407;-72
2020/12/27 07:19:25;;;;;;;11.60;10.13;;;-1.60;99.90;;;;;;5070072;28;20372;-72
2020/12/27 07:21:51;;;;;;;11.82;10.55;;;;;;;;;;5070213;28;20885;-73
2020/12/27 07:24:22;;;;;;;11.55;10.35;;;;;;;;;;5070028;28;20376;-73
2020/12/27 07:26:48;;;;;;;11.35;10.25;;;-1.60;99.90;;;;;;5069599;28;20888;-72
2020/12/27 07:29:17;;;;;;;11.70;10.50;;;-1.90;99.90;;;;;;5069192;28;20418;-72
2020/12/27 07:31:44;;;;;;;11.23;10.10;;;;;;;;;;5069417;28;20514;-72
2020/12/27 07:34:12;;;;;;;10.63;9.52;;;-1.80;99.90;;;;;;5071166;28;20386;-72
2020/12/27 07:36:38;;;;;;;10.82;9.73;;;-1.80;99.90;;;;;;5054577;28;20440;-73
2020/12/27 07:39:05;;;;;;;10.67;9.57;;;;;;;;;;5065452;28;20412;-73
2020/12/27 07:41:42;;;;;;;10.73;9.63;;;-1.50;99.90;;;;;;5065911;28;20479;-71
2020/12/27 07:44:12;;;;;;;10.77;9.68;;;;;;;;;;5052648;28;20396;-71
2020/12/27 07:46:38;;;;;;;9.15;8.25;;;;;;;;;;5053618;28;20738;-71
2020/12/27 07:49:07;;;;;;;10.07;9.07;;;;;;;;;;5053979;28;20408;-71
2020/12/27 07:51:32;;;;;;;10.05;8.98;;;-1.70;99.90;;;;;;5053188;28;20438;-72
2020/12/27 07:53:58;;;;;;;10.25;9.05;;;;;;;;;;5052352;28;20405;-72
2020/12/27 07:56:25;;;;;;;9.98;8.85;;;;;;;;;;5053051;28;20824;-73
2020/12/27 07:59:01;;;;;;;10.27;9.27;;;;;;;;;;5053714;28;20740;-72
2020/12/27 08:01:29;;;;;;;9.70;8.80;;;-1.60;99.90;;;;;;5053664;28;20464;-72
2020/12/27 08:03:56;;;;;;;11.05;9.95;;;;;;;;;;5053154;28;20443;-71
2020/12/27 08:06:23;;;;;;;10.07;9.00;;;;;;;;;;5052680;28;20384;-71
2020/12/27 08:08:58;;;;;;;9.57;8.57;;;-1.40;99.90;;;;;;5052795;28;20456;-71
2020/12/27 08:11:24;;;;;;;9.60;8.60;;;;;;;;;;5053367;28;20859;-72
2020/12/27 08:14:00;;;;;;;9.38;8.48;;;;;;;;;;5052811;28;20469;-72
2020/12/27 08:16:27;;;;;;;9.73;8.57;;;-1.40;99.90;;;;;;5053081;28;20398;-73
2020/12/27 08:19:12;;;;;;;9.48;8.32;;;-1.70;99.90;;;;;;5052126;28;20388;-71
2020/12/27 08:21:39;;;;;;;9.52;8.63;;;;;;;;;;5058653;28;20373;-72
2020/12/27 08:24:06;;;;;;;10.52;8.95;;;;;;;;;;5066558;28;20385;-71
2020/12/27 08:26:33;;;;;;;10.90;9.07;;;;;;;;;;5066380;28;20369;-73
2020/12/27 08:29:17;;;;;;;18.03;12.10;;;;;;;;;;5061270;28;20401;-72
2020/12/27 08:35:03;;;;;;;13.02;10.30;;;;;;;;;;5066438;28;20416;-72
2020/12/27 08:37:30;;;;;;;9.93;8.43;;;;;;;;;;5051506;28;20394;-73
2020/12/27 08:40:02;;;;;;;10.05;8.07;;;-1.40;99.90;;;;;;5051697;28;20376;-73
2020/12/27 08:42:40;;;;;;;10.47;9.03;;;-1.30;99.90;;;;;;5065162;28;20977;-74
2020/12/27 08:45:20;;;;;;;11.43;9.48;;;-1.70;99.90;;;;;;5071664;28;20375;-73
2020/12/27 08:47:55;;;;;;;10.07;8.25;;;;;;;;;;5071997;28;20403;-73
2020/12/27 08:50:23;;;;;;;13.73;10.20;;;;;;;;;;5075037;28;20368;-73
2020/12/27 08:52:53;;;;;;;14.75;12.77;;;-1.40;99.90;;;;;;5072640;28;20372;-73
2020/12/27 08:55:41;;;;;;;9.75;8.73;;;;;;;;;;5061196;28;20998;-74
2020/12/27 08:58:11;;;;;;;10.63;8.40;;;;;;;;;;5039343;28;20541;-72
2020/12/27 09:03:47;;;;;;;11.48;8.82;;;;;;;;;;5073252;28;20403;-73
2020/12/27 09:06:19;;;;;;;11.80;8.63;;;;;;;;;;5058058;28;20387;-72
2020/12/27 09:09:14;;;;;;;11.48;8.40;;;;;;;;;;5069797;28;20389;-72
2020/12/27 09:11:47;;;;;;;12.05;9.90;;;;;;;;;;5070280;28;20390;-71
2020/12/27 09:14:32;;;;;;;13.38;9.50;;;;;;;;;;5072020;28;20391;-72
2020/12/27 09:17:00;;;;;;;11.43;9.60;;;;;;;;;;5071988;28;20445;-73
2020/12/27 09:19:27;;;;;;;11.77;9.10;;;-1.20;99.90;;;;;;5071920;28;20372;-71
2020/12/27 09:21:52;;;;;;;18.45;10.90;;;-1.40;99.90;;;;;;5071044;28;20388;-71
2020/12/27 09:24:18;;;;;;;18.13;10.27;;;;;;;;;;5071159;28;20383;-71
2020/12/27 09:26:44;;;;;;;17.02;10.20;;;;;;;;;;5071764;28;20412;-72
2020/12/27 09:29:18;;;;;;;12.73;8.35;;;-1.40;99.90;;;;;;5071732;28;20414;-72
2020/12/27 09:31:44;;;;;;;20.05;9.90;;;;;;;;;;5071833;28;20388;-71
2020/12/27 09:34:10;;;;;;;15.73;9.40;;;;;;;;;;5070699;28;20471;-72
2020/12/27 09:36:37;;;;;;;17.77;9.50;;;;;;;;;;5051353;28;20770;-72
2020/12/27 09:39:05;;;;;;;14.45;9.40;;;-1.20;99.90;;;;;;5051588;28;20431;-71
2020/12/27 09:41:38;;;;;;;15.35;9.50;;;-1.10;99.90;;;;;;5056483;28;20418;-72
2020/12/27 09:44:04;;;;;;;14.23;9.40;;;;;;;;;;5071007;28;20375;-72
2020/12/27 09:46:40;;;;;;;13.02;8.32;;;;;;;;;;5070873;28;20467;-71
2020/12/27 09:49:31;;;;;;;11.75;9.05;;;-1.00;99.90;;;;;;5070451;28;20417;-72
2020/12/27 09:52:13;;;;;;;9.85;8.18;;;-1.00;99.90;;;;;;5071340;28;20376;-72
2020/12/27 09:54:43;;;;;;;11.63;8.53;;;;;;;;;;5057416;28;20954;-72
2020/12/27 09:57:13;;;;;;;12.63;8.80;;;;;;;;;;5055731;28;20450;-72
2020/12/27 09:59:39;;;;;;;16.70;10.50;;;;;;;;;;5060959;28;20414;-72
2020/12/27 10:02:05;;;;;;;10.02;8.13;;;;;;;;;;5057732;28;20388;-72
2020/12/27 10:04:32;;;;;;;9.05;8.15;;;;;;;;;;5064941;28;20432;-72
2020/12/27 10:06:57;;;;;;;10.77;8.27;;;;;;;;;;5059701;28;20403;-72
2020/12/27 10:09:24;;;;;;;12.05;8.13;;;;;;;;;;5062431;28;20375;-72
2020/12/27 10:11:50;;;;;;;8.38;7.47;;;-1.00;99.90;;;;;;5061645;28;20733;-72
2020/12/27 10:14:16;;;;;;;10.95;8.05;;;;;;;;;;5060272;28;20456;-72
2020/12/27 10:16:42;;;;;;;10.35;8.10;;;;;;;;;;5060761;28;20404;-72
2020/12/27 10:19:08;;;;;;;9.80;7.40;;;;;;;;;;5062446;28;20898;-72
2020/12/27 10:21:34;;;;;;;10.98;7.90;;;;;;;;;;5061111;28;20371;-72
2020/12/27 10:23:59;;;;;;;9.20;6.95;;;;;;;;;;5060598;28;20878;-72
2020/12/27 10:26:25;;;;;;;9.13;7.18;;;;;;;;;;5062942;28;20775;-71
2020/12/27 10:28:52;;;;;;;9.57;7.72;;;;;;;;;;5059901;28;20468;-72
2020/12/27 10:31:17;;;;;;;9.10;6.88;;;;;;;;;;5064210;28;20377;-71
2020/12/27 10:33:43;;;;;;;9.03;6.90;;;;;;;;;;5058972;28;20921;-72
2020/12/27 10:36:10;;;;;;;8.75;7.05;;;;;;;;;;5062695;28;20401;-72
2020/12/27 10:38:36;;;;;;;8.95;6.75;;;;;;;;;;5063852;28;20386;-72
2020/12/27 10:41:02;;;;;;;8.07;6.90;;;;;;;;;;5058344;28;20390;-72
2020/12/27 10:43:28;;;;;;;8.98;7.30;;;;;;;;;;5060330;28;20880;-71
2020/12/27 10:46:02;;;;;;;10.70;7.38;;;;;;;;;;5061924;28;20433;-71
2020/12/27 10:48:28;;;;;;;11.85;7.43;;;;;;;;;;5055144;28;20386;-71
2020/12/27 10:50:54;;;;;;;12.93;7.65;;;;;;;;;;5049444;28;20377;-71
2020/12/27 10:53:19;;;;;;;10.27;7.53;;;0.20;99.90;;;;;;5049436;28;20740;-71
2020/12/27 10:55:46;;;;;;;10.98;7.40;;;;;;;;;;5050318;28;20410;-72
2020/12/27 10:58:12;;;;;;;8.05;6.50;;;;;;;;;;5050201;28;20392;-71
2020/12/27 11:00:38;;;;;;;8.55;6.53;;;;;;;;;;5050320;28;20373;-71
2020/12/27 11:03:04;;;;;;;11.70;7.03;;;;;;;;;;5049128;28;20775;-71
2020/12/27 11:05:30;;;;;;;8.65;6.90;;;;;;;;;;5049300;28;20420;-72
2020/12/27 11:07:56;;;;;;;9.23;6.25;;;;;;;;;;5050260;28;20389;-70
2020/12/27 11:10:22;;;;;;;8.30;6.15;;;;;;;;;;5049709;28;20390;-71
2020/12/27 11:12:48;;;;;;;8.93;6.82;;;;;;;;;;5049841;28;20475;-71
2020/12/27 11:15:15;;;;;;;11.25;7.70;;;-0.40;99.90;;;;;;5052676;28;20388;-72
2020/12/27 11:17:42;;;;;;;9.23;7.07;;;;;;;;;;5061664;28;20442;-75
2020/12/27 11:20:08;;;;;;;8.93;6.80;;;-0.40;99.90;;;;;;5066491;28;20382;-72
2020/12/27 11:22:38;;;;;;;8.23;6.13;;;0.20;99.90;;;;;;5059392;28;20389;-72
2020/12/27 11:25:04;;;;;;;9.90;6.30;;;0.50;99.90;;;;;;5049435;28;20381;-72
2020/12/27 11:27:30;;;;;;;8.80;6.27;;;-0.50;99.90;;;;;;5049410;28;20420;-71
2020/12/27 11:29:57;;;;;;;9.73;6.20;;;;;;;;;;5049002;28;20424;-72
2020/12/27 11:32:22;;;;;;;8.25;6.03;;;0.50;99.90;;;;;;5057567;28;20391;-74
2020/12/27 11:34:48;;;;;;;8.10;5.70;;;0.00;99.90;;;;;;5058354;28;20404;-73
2020/12/27 11:37:14;;;;;;;11.60;5.95;;;0.50;99.90;;;;;;5061349;28;20494;-73
2020/12/27 11:39:40;;;;;;;6.73;5.57;;;;;;;;;;5059158;28;20393;-73
2020/12/27 11:42:06;;;;;;;9.13;5.20;;;-0.30;99.90;;;;;;5044267;28;20375;-72
2020/12/27 11:44:32;;;;;;;7.17;5.93;;;;;;;;;;5059928;28;20435;-72
2020/12/27 11:46:58;;;;;;;7.57;5.63;;;;;;;;;;5059784;28;20397;-74
2020/12/27 11:49:24;;;;;;;7.13;5.38;;;;;;;;;;5058344;28;20413;-74
2020/12/27 11:51:50;;;;;;;6.07;5.15;;;;;;;;;;5059388;28;20437;-73
2020/12/27 11:54:16;;;;;;;6.30;4.60;;;;;;;;;;5056545;28;20389;-73
2020/12/27 11:56:43;;;;;;;5.95;4.40;;;;;;;;;;5057670;28;20411;-73
2020/12/27 11:59:10;;;;;;;5.72;4.68;;;;;;;;;;5061369;28;20425;-73
2020/12/27 12:01:36;;;;;;;7.43;5.50;;;;;;;;;;5061203;28;20876;-72
2020/12/27 12:04:02;;;;;;;6.07;4.47;;;;;;;;;;5060641;28;20388;-74
2020/12/27 12:06:29;;;;;;;8.00;5.40;;;;;;;;;;5060289;28;20387;-73
2020/12/27 12:08:55;;;;;;;6.85;4.57;;;;;;;;;;5056973;28;20460;-73
2020/12/27 12:11:21;;;;;;;5.07;4.07;;;;;;;;;;5061290;28;20380;-73
2020/12/27 12:13:47;;;;;;;8.10;5.18;;;;;;;;;;5059874;28;20824;-73
2020/12/27 12:16:22;;;;;;;8.93;4.95;;;;;;;;;;5055214;28;20494;-73
2020/12/27 12:18:48;;;;;;;9.75;6.13;;;;;;;;;;5058028;28;20373;-73
2020/12/27 12:21:14;;;;;;;11.32;7.43;;;;;;;;;;5061076;28;20376;-72
2020/12/27 12:23:40;;;;;;;11.43;6.50;;;;;;;;;;5060889;28;20382;-73
2020/12/27 12:26:06;;;;;;;14.30;8.45;;;0.80;99.90;;;;;;5067959;28;20381;-72
2020/12/27 12:28:32;;;;;;;10.03;8.30;;;;;;;;;;5060805;28;20871;-72
2020/12/27 12:30:58;;;;;;;9.77;7.20;;;;;;;;;;5066516;28;20375;-72
2020/12/27 12:33:24;;;;;;;9.03;5.97;;;;;;;;;;5065620;28;20380;-71
2020/12/27 12:35:50;;;;;;;6.55;4.65;;;;;;;;;;5062396;28;20743;-72
2020/12/27 12:38:16;;;;;;;7.03;5.20;;;0.30;99.90;;;;;;5064693;28;20379;-71
2020/12/27 12:40:43;;;;;;;4.97;4.30;;;0.10;99.90;;;;;;5064235;28;20399;-72
2020/12/27 12:43:09;;;;;;;5.35;4.85;;;;;;;;;;5062283;28;20405;-72
2020/12/27 12:45:35;;;;;;;5.72;4.38;;;;;;;;;;5063416;28;20736;-73
2020/12/27 12:48:01;;;;;;;4.80;4.30;;;0.50;99.90;;;;;;5054284;28;20870;-73
2020/12/27 12:50:27;;;;;;;4.33;3.83;;;;;;;;;;5064072;28;20478;-71
2020/12/27 12:52:53;;;;;;;4.80;4.13;;;;;;;;;;5057391;28;20465;-72
2020/12/27 12:55:19;;;;;;;5.57;4.00;;;;;;;;;;5052381;28;20472;-72
2020/12/27 12:57:46;;;;;;;5.32;4.22;;;0.60;99.90;;;;;;5051322;28;20747;-71
2020/12/27 13:00:12;;;;;;;5.43;4.33;;;;;;;;;;5051418;28;20414;-74
2020/12/27 13:02:38;;;;;;;9.57;4.82;;;;;;;;;;5052028;28;20428;-72
2020/12/27 13:05:04;;;;;;;5.33;3.80;;;;;;;;;;5052158;28;20386;-73
2020/12/27 13:07:30;;;;;;;4.82;4.00;;;;;;;;;;5052041;28;20385;-73
2020/12/27 13:09:56;;;;;;;5.03;4.40;;;;;;;;;;5051323;28;20900;-71
2020/12/27 13:12:22;;;;;;;5.75;4.78;;;;;;;;;;5050779;28;20392;-71
2020/12/27 13:14:48;;;;;;;6.00;4.83;;;;;;;;;;5052101;28;20467;-71
2020/12/27 13:17:13;;;;;;;6.10;4.78;;;0.50;99.90;;;;;;5051970;28;20405;-71
2020/12/27 13:19:39;;;;;;;5.85;4.43;;;;;;;;;;5051824;28;20417;-72
2020/12/27 13:22:06;;;;;;;5.60;4.80;;;0.50;99.90;;;;;;5051119;28;20837;-74
2020/12/27 13:24:33;;;;;;;4.63;4.00;;;;;;;;;;5051172;28;20753;-73
2020/12/27 13:27:00;;;;;;;5.47;4.68;;;1.10;99.90;;;;;;5051576;28;20385;-72
2020/12/27 13:29:26;;;;;;;6.13;4.35;;;0.80;99.90;;;;;;5051825;28;20385;-71
2020/12/27 13:31:51;;;;;;;4.18;3.78;;;0.70;99.90;;;;;;5051494;28;20393;-71
2020/12/27 13:34:17;;;;;;;4.53;4.00;;;;;;;;;;5050951;28;20808;-72
2020/12/27 13:36:43;;;;;;;4.50;3.80;;;;;;;;;;5037410;28;20429;-72
2020/12/27 13:39:09;;;;;;;4.35;3.95;;;;;;;;;;5051037;28;20764;-72
2020/12/27 13:41:36;;;;;;;5.20;3.90;;;;;;;;;;5057801;28;20388;-72
2020/12/27 13:44:02;;;;;;;4.93;4.00;;;;;;;;;;5071250;28;20396;-71
2020/12/27 13:46:37;;;;;;;4.32;3.70;;;0.40;99.90;;;;;;5071077;28;20462;-71
2020/12/27 13:49:04;;;;;;;4.65;3.63;;;0.30;99.90;;;;;;5070345;28;20383;-73
2020/12/27 13:51:30;;;;;;;5.40;3.95;;;0.70;99.90;;;;;;5070858;28;20384;-71
2020/12/27 13:53:55;;;;;;;5.00;4.20;;;0.60;99.90;;;;;;5070848;28;20893;-72